Time;durP1;ratioP1;P1;durP2;ratioP2;P2;SDS_P1;SDS_P2;PMS_P1;PMS_P2;Temp;Humidity;BMP_temperature;BMP_pressure;BME280_temperature;BME280_humidity;BME280_pressure;Samples;Min_cycle;Max_cycle;Signal;HPM_P1;HPM_P2
2023/05/10 00:02:24;;;;;;;2.28;1.02;;;11.80;70.90;;;;;;5093211;28;20020;-76
2023/05/10 00:04:50;;;;;;;2.08;1.20;;;11.80;70.30;;;;;;5095742;28;20328;-76
2023/05/10 00:07:17;;;;;;;3.78;1.65;;;11.80;68.80;;;;;;5097283;28;20024;-76
2023/05/10 00:09:43;;;;;;;2.83;1.60;;;11.70;67.50;;;;;;5095687;28;20055;-76
2023/05/10 00:12:08;;;;;;;3.58;1.85;;;11.70;66.00;;;;;;5104886;28;20097;-73
2023/05/10 00:14:34;;;;;;;3.92;1.70;;;11.70;65.10;;;;;;5087060;28;20050;-73
2023/05/10 00:17:02;;;;;;;2.80;1.48;;;11.70;63.60;;;;;;5109875;28;20434;-72
2023/05/10 00:19:28;;;;;;;3.83;2.33;;;11.70;62.60;;;;;;5094374;28;20024;-72
2023/05/10 00:21:53;;;;;;;3.90;1.55;;;11.70;62.20;;;;;;5103583;28;20050;-73
2023/05/10 00:24:19;;;;;;;2.78;1.55;;;11.70;61.90;;;;;;5102032;28;20046;-73
2023/05/10 00:26:45;;;;;;;3.13;1.70;;;11.70;61.90;;;;;;5104366;28;20035;-72
2023/05/10 00:29:10;;;;;;;3.53;1.40;;;11.70;61.90;;;;;;5112194;28;20042;-72
2023/05/10 00:31:36;;;;;;;2.80;1.40;;;11.70;61.30;;;;;;5100145;28;20108;-72
2023/05/10 00:34:01;;;;;;;3.05;1.42;;;11.70;61.80;;;;;;5098689;28;20020;-73
2023/05/10 00:36:27;;;;;;;3.25;1.60;;;11.70;61.70;;;;;;5112934;28;20096;-72
2023/05/10 00:38:53;;;;;;;2.03;1.15;;;11.60;61.50;;;;;;5105990;28;20034;-72
2023/05/10 00:41:18;;;;;;;3.50;2.03;;;11.60;61.10;;;;;;5108835;28;20100;-72
2023/05/10 00:43:44;;;;;;;4.57;1.70;;;11.60;61.00;;;;;;5113330;28;20043;-72
2023/05/10 00:46:10;;;;;;;7.55;2.90;;;11.60;60.90;;;;;;5114697;28;20028;-74
2023/05/10 00:48:36;;;;;;;7.45;2.55;;;11.60;60.60;;;;;;5113732;28;20027;-74
2023/05/10 00:51:02;;;;;;;6.78;2.50;;;11.60;60.50;;;;;;5114259;28;20038;-73
2023/05/10 00:53:28;;;;;;;4.93;1.85;;;11.60;60.30;;;;;;5110821;28;20324;-73
2023/05/10 00:55:55;;;;;;;4.55;1.90;;;11.50;60.40;;;;;;5114057;28;20738;-73
2023/05/10 00:58:20;;;;;;;3.35;1.70;;;11.50;59.90;;;;;;5118361;28;20031;-77
2023/05/10 01:00:48;;;;;;;3.72;1.60;;;11.50;59.90;;;;;;5099559;28;20035;-76
2023/05/10 01:03:14;;;;;;;4.78;1.50;;;11.50;60.20;;;;;;5118306;28;20020;-76
2023/05/10 01:05:39;;;;;;;3.30;1.23;;;11.40;60.20;;;;;;5100273;28;20102;-76
2023/05/10 01:08:06;;;;;;;1.80;1.20;;;11.30;60.20;;;;;;5097624;28;20012;-75
2023/05/10 01:10:32;;;;;;;4.60;1.42;;;11.20;60.10;;;;;;5118976;28;20028;-75
2023/05/10 01:12:59;;;;;;;2.60;1.20;;;11.20;60.00;;;;;;5113770;28;20038;-76
2023/05/10 01:15:25;;;;;;;3.40;1.55;;;11.20;60.00;;;;;;5116995;28;20024;-75
2023/05/10 01:17:52;;;;;;;2.75;1.35;;;11.20;59.90;;;;;;5117099;28;20047;-76
2023/05/10 01:20:18;;;;;;;3.10;1.20;;;11.20;59.80;;;;;;5114981;28;20020;-75
2023/05/10 01:23:08;;;;;;;3.70;1.17;;;11.20;59.80;;;;;;5096835;28;20027;-75
2023/05/10 01:26:06;;;;;;;2.75;1.30;;;11.20;59.80;;;;;;5115452;28;20012;-77
2023/05/10 01:28:58;;;;;;;2.55;1.27;;;11.10;59.80;;;;;;5077174;28;20039;-76
2023/05/10 01:31:35;;;;;;;2.55;1.33;;;11.10;59.70;;;;;;5117203;28;20051;-76
2023/05/10 01:34:12;;;;;;;3.65;1.33;;;11.10;59.60;;;;;;5097777;28;20436;-75
2023/05/10 01:36:53;;;;;;;3.67;1.45;;;11.10;59.70;;;;;;5117486;28;20031;-76
2023/05/10 01:39:45;;;;;;;6.75;1.70;;;11.10;59.70;;;;;;5113114;28;20158;-75
2023/05/10 01:42:17;;;;;;;2.22;1.10;;;11.10;59.70;;;;;;5086999;28;20306;-75
2023/05/10 01:45:20;;;;;;;3.53;1.10;;;11.10;59.70;;;;;;5115239;28;20027;-75
2023/05/10 01:48:11;;;;;;;11.18;1.73;;;11.10;59.60;;;;;;5113764;28;20027;-75
2023/05/10 01:50:43;;;;;;;3.80;1.30;;;11.00;59.70;;;;;;5112270;28;20099;-74
2023/05/10 01:53:13;;;;;;;2.55;1.30;;;11.10;59.60;;;;;;5082394;28;20024;-75
2023/05/10 01:55:49;;;;;;;3.38;1.33;;;11.00;59.90;;;;;;5099982;28;20320;-75
2023/05/10 01:58:27;;;;;;;3.08;1.33;;;11.00;59.80;;;;;;5116676;28;20040;-74
2023/05/10 02:00:53;;;;;;;2.63;1.25;;;10.90;60.00;;;;;;5099921;28;20020;-75
2023/05/10 02:03:22;;;;;;;3.92;1.20;;;10.90;60.30;;;;;;5117848;28;20101;-75
2023/05/10 02:05:50;;;;;;;3.20;1.50;;;10.90;60.30;;;;;;5118033;28;20020;-75
2023/05/10 02:08:18;;;;;;;4.00;1.60;;;10.90;60.20;;;;;;5116376;28;20098;-75
2023/05/10 02:10:46;;;;;;;3.28;1.75;;;10.80;60.40;;;;;;5117627;28;20028;-75
2023/05/10 02:13:12;;;;;;;5.40;1.80;;;10.80;60.40;;;;;;5115747;28;20408;-75
2023/05/10 02:15:41;;;;;;;4.78;1.95;;;10.80;60.30;;;;;;5116872;28;20252;-75
2023/05/10 02:18:09;;;;;;;3.95;1.80;;;10.80;60.30;;;;;;5116691;28;20080;-75
2023/05/10 02:20:36;;;;;;;3.05;1.60;;;10.70;60.20;;;;;;5116917;28;20028;-75
2023/05/10 02:23:03;;;;;;;2.97;1.70;;;10.70;60.30;;;;;;5097329;28;20107;-75
2023/05/10 02:25:29;;;;;;;4.20;1.33;;;10.70;60.10;;;;;;5116765;28;20428;-75
2023/05/10 02:27:57;;;;;;;4.32;1.65;;;10.70;59.90;;;;;;5112332;28;20408;-75
2023/05/10 02:30:23;;;;;;;3.45;1.17;;;10.70;59.80;;;;;;5113446;28;20015;-75
2023/05/10 02:32:51;;;;;;;2.75;1.50;;;10.80;59.90;;;;;;5113756;28;20118;-75
2023/05/10 02:35:17;;;;;;;2.83;1.50;;;10.70;60.10;;;;;;5113919;28;20026;-75
2023/05/10 02:37:45;;;;;;;5.10;1.50;;;10.70;59.90;;;;;;5095916;28;20327;-74
2023/05/10 02:40:12;;;;;;;3.33;1.95;;;10.70;59.90;;;;;;5115206;28;20084;-75
2023/05/10 02:42:42;;;;;;;3.78;1.85;;;10.70;60.00;;;;;;5088695;28;20090;-75
2023/05/10 02:45:11;;;;;;;2.97;1.50;;;10.70;60.10;;;;;;5109070;28;20471;-75
2023/05/10 02:47:37;;;;;;;3.33;1.90;;;10.70;60.00;;;;;;5115142;28;20454;-75
2023/05/10 02:50:03;;;;;;;4.22;1.77;;;10.70;60.10;;;;;;5113790;28;20103;-75
2023/05/10 02:52:39;;;;;;;2.95;1.52;;;10.70;60.00;;;;;;5111768;28;20309;-75
2023/05/10 02:55:08;;;;;;;3.15;1.83;;;10.70;60.00;;;;;;5112312;28;20043;-75
2023/05/10 02:57:38;;;;;;;6.53;1.40;;;10.70;60.00;;;;;;5111924;28;20035;-75
2023/05/10 03:00:04;;;;;;;4.10;1.45;;;10.70;60.30;;;;;;5113969;28;20435;-75
2023/05/10 03:02:31;;;;;;;4.68;1.73;;;10.60;60.50;;;;;;5111201;28;20028;-75
2023/05/10 03:04:57;;;;;;;2.58;1.40;;;10.60;60.50;;;;;;5113007;28;20043;-75
2023/05/10 03:07:23;;;;;;;3.47;1.33;;;10.50;60.60;;;;;;5110359;28;20027;-75
2023/05/10 03:09:52;;;;;;;4.28;1.45;;;10.50;60.40;;;;;;5110610;28;20055;-74
2023/05/10 03:12:58;;;;;;;3.22;1.35;;;10.50;60.40;;;;;;5112486;28;20068;-75
2023/05/10 03:15:26;;;;;;;3.40;1.40;;;10.50;60.40;;;;;;5106368;28;20031;-75
2023/05/10 03:17:57;;;;;;;5.05;1.38;;;10.50;60.70;;;;;;5111031;28;20460;-75
2023/05/10 03:20:29;;;;;;;2.05;1.20;;;10.50;60.50;;;;;;5112139;28;20107;-75
2023/05/10 03:23:07;;;;;;;2.65;1.13;;;10.40;60.60;;;;;;5109615;28;20438;-75
2023/05/10 03:25:34;;;;;;;2.88;1.40;;;10.40;61.40;;;;;;5110661;28;20024;-75
2023/05/10 03:28:04;;;;;;;3.50;1.30;;;10.30;61.60;;;;;;5108639;28;20769;-74
2023/05/10 03:30:31;;;;;;;2.75;1.25;;;10.30;61.60;;;;;;5105744;28;20070;-74
2023/05/10 03:32:56;;;;;;;4.00;1.50;;;10.30;61.80;;;;;;5105746;28;20028;-74
2023/05/10 03:35:24;;;;;;;3.30;1.27;;;10.40;62.10;;;;;;5111646;28;20929;-73
2023/05/10 03:37:52;;;;;;;2.20;1.33;;;10.40;62.60;;;;;;5108941;28;20024;-74
2023/05/10 03:40:18;;;;;;;3.13;1.38;;;10.40;63.20;;;;;;5105818;28;20031;-75
2023/05/10 03:42:43;;;;;;;2.63;1.40;;;10.40;63.30;;;;;;5112960;28;20058;-76
2023/05/10 03:45:09;;;;;;;3.38;1.38;;;10.50;63.70;;;;;;5089012;28;20051;-74
2023/05/10 03:47:37;;;;;;;3.08;1.40;;;10.50;64.30;;;;;;5108971;28;20051;-75
2023/05/10 03:50:03;;;;;;;2.67;1.30;;;10.40;66.50;;;;;;5092528;28;20047;-74
2023/05/10 03:52:29;;;;;;;4.43;1.40;;;10.30;67.80;;;;;;5108254;28;20332;-74
2023/05/10 03:54:54;;;;;;;3.00;1.58;;;10.30;67.80;;;;;;5113128;28;20034;-75
2023/05/10 03:57:20;;;;;;;4.55;2.00;;;10.30;68.30;;;;;;5105778;28;20095;-74
2023/05/10 03:59:46;;;;;;;5.28;2.13;;;10.30;67.80;;;;;;5106398;28;20107;-74
2023/05/10 04:02:11;;;;;;;9.05;2.08;;;10.30;67.30;;;;;;5104490;28;20443;-74
2023/05/10 04:04:37;;;;;;;4.43;2.05;;;10.30;69.10;;;;;;5104566;28;20052;-74
2023/05/10 04:07:03;;;;;;;3.58;1.77;;;10.40;69.60;;;;;;5101234;28;20016;-75
2023/05/10 04:09:28;;;;;;;3.28;1.83;;;10.40;69.80;;;;;;5098820;28;20028;-74
2023/05/10 04:11:54;;;;;;;4.10;1.77;;;10.40;69.70;;;;;;5082452;28;20107;-74
2023/05/10 04:14:20;;;;;;;3.70;1.73;;;10.50;69.90;;;;;;5105454;28;20027;-74
2023/05/10 04:16:45;;;;;;;3.40;1.60;;;10.50;69.60;;;;;;5086143;28;20023;-73
2023/05/10 04:19:11;;;;;;;3.72;1.60;;;10.50;69.30;;;;;;5104368;28;20107;-75
2023/05/10 04:21:40;;;;;;;4.75;1.40;;;10.50;69.60;;;;;;5099640;28;20059;-74
2023/05/10 04:24:05;;;;;;;4.90;1.52;;;10.50;70.40;;;;;;5094790;28;20024;-74
2023/05/10 04:26:31;;;;;;;3.20;1.73;;;10.50;71.10;;;;;;5095332;28;20032;-74
2023/05/10 04:28:56;;;;;;;2.63;1.70;;;10.60;71.30;;;;;;5099333;28;20035;-74
2023/05/10 04:31:22;;;;;;;3.50;1.50;;;10.60;71.70;;;;;;5118830;28;20031;-74
2023/05/10 04:33:48;;;;;;;4.60;1.90;;;10.60;72.50;;;;;;5118677;28;20026;-74
2023/05/10 04:36:13;;;;;;;3.67;2.00;;;10.60;72.50;;;;;;5117824;28;20324;-74
2023/05/10 04:38:39;;;;;;;4.38;1.55;;;10.60;72.70;;;;;;5118196;28;20031;-74
2023/05/10 04:41:06;;;;;;;3.28;1.70;;;10.70;72.50;;;;;;5118346;28;20046;-74
2023/05/10 04:43:32;;;;;;;4.35;1.98;;;10.70;72.60;;;;;;5119242;28;20036;-74
2023/05/10 04:45:58;;;;;;;4.32;2.42;;;10.70;72.60;;;;;;5118488;28;20038;-74
2023/05/10 04:48:23;;;;;;;6.53;2.33;;;10.70;72.60;;;;;;5118478;28;20058;-74
2023/05/10 04:50:49;;;;;;;3.70;1.40;;;10.70;72.80;;;;;;5117779;28;20035;-74
2023/05/10 04:53:14;;;;;;;5.80;2.20;;;10.70;72.60;;;;;;5114030;28;20046;-74
2023/05/10 04:55:40;;;;;;;3.80;2.03;;;10.70;73.60;;;;;;5118503;28;20084;-74
2023/05/10 04:58:05;;;;;;;3.47;1.90;;;10.70;73.30;;;;;;5115880;28;20034;-74
2023/05/10 05:00:32;;;;;;;3.95;1.52;;;10.80;73.40;;;;;;5085901;28;20024;-74
2023/05/10 05:02:58;;;;;;;3.10;1.80;;;10.80;74.00;;;;;;5116654;28;20020;-74
2023/05/10 05:05:23;;;;;;;3.05;1.70;;;10.90;75.30;;;;;;5097880;28;20016;-74
2023/05/10 05:07:49;;;;;;;4.32;1.90;;;10.80;76.20;;;;;;5114499;28;20035;-74
2023/05/10 05:10:14;;;;;;;6.32;2.20;;;10.80;76.80;;;;;;5119089;28;20020;-74
2023/05/10 05:12:40;;;;;;;3.92;2.30;;;10.80;76.00;;;;;;5116766;28;20023;-74
2023/05/10 05:15:08;;;;;;;4.28;1.85;;;10.80;77.70;;;;;;5117331;28;20035;-74
2023/05/10 05:17:33;;;;;;;5.60;1.95;;;10.80;78.10;;;;;;5113983;28;20024;-74
2023/05/10 05:19:59;;;;;;;4.43;2.00;;;10.80;77.90;;;;;;5100575;28;20027;-73
2023/05/10 05:22:27;;;;;;;3.60;2.10;;;10.90;78.90;;;;;;5116658;28;20028;-74
2023/05/10 05:24:57;;;;;;;4.90;2.10;;;10.90;79.00;;;;;;5095874;28;20147;-73
2023/05/10 05:27:25;;;;;;;5.28;2.28;;;10.90;78.80;;;;;;5114492;28;20020;-74
2023/05/10 05:29:56;;;;;;;3.92;1.83;;;10.90;78.30;;;;;;5116385;28;20124;-73
2023/05/10 05:32:22;;;;;;;12.93;8.50;;;11.00;79.10;;;;;;5116971;28;20107;-74
2023/05/10 05:34:48;;;;;;;13.18;8.88;;;11.00;80.60;;;;;;5118500;28;20073;-74
2023/05/10 05:37:18;;;;;;;5.47;2.30;;;11.00;80.10;;;;;;5118603;28;20379;-73
2023/05/10 05:39:45;;;;;;;4.88;2.33;;;11.20;80.40;;;;;;5115049;28;20294;-74
2023/05/10 05:42:11;;;;;;;6.85;2.60;;;11.20;81.20;;;;;;5098925;28;20047;-74
2023/05/10 05:44:37;;;;;;;3.92;1.70;;;11.20;82.10;;;;;;5118347;28;20020;-74
2023/05/10 05:47:03;;;;;;;4.80;1.77;;;11.10;84.80;;;;;;5091226;28;20378;-74
2023/05/10 05:49:29;;;;;;;3.70;1.88;;;11.10;84.60;;;;;;5114525;28;20416;-74
2023/05/10 05:51:58;;;;;;;5.15;2.17;;;11.00;81.70;;;;;;5118391;28;20035;-73
2023/05/10 05:54:23;;;;;;;4.50;2.25;;;11.00;80.60;;;;;;5115682;28;20027;-72
2023/05/10 05:56:49;;;;;;;3.88;1.70;;;11.00;80.50;;;;;;5114997;28;20031;-73
2023/05/10 05:59:14;;;;;;;4.40;2.20;;;11.00;80.30;;;;;;5114911;28;20043;-73
2023/05/10 06:01:40;;;;;;;4.05;1.90;;;11.00;80.90;;;;;;5114171;28;20099;-73
2023/05/10 06:04:05;;;;;;;6.55;2.10;;;11.00;80.30;;;;;;5113270;28;20023;-73
2023/05/10 06:06:32;;;;;;;3.13;1.80;;;11.00;80.10;;;;;;5115944;28;20020;-74
2023/05/10 06:08:57;;;;;;;4.82;1.70;;;11.10;81.50;;;;;;5111283;28;20053;-73
2023/05/10 06:11:23;;;;;;;3.58;1.80;;;11.10;82.00;;;;;;5117888;28;20027;-74
2023/05/10 06:13:49;;;;;;;3.28;1.80;;;11.20;82.80;;;;;;5117045;28;20024;-74
2023/05/10 06:16:14;;;;;;;3.33;1.77;;;11.30;83.10;;;;;;5099729;28;20059;-74
2023/05/10 06:18:40;;;;;;;5.30;2.20;;;11.30;83.90;;;;;;5115572;28;20076;-73
2023/05/10 06:21:05;;;;;;;4.85;2.30;;;11.30;85.90;;;;;;5098953;28;20043;-73
2023/05/10 06:23:31;;;;;;;6.50;2.47;;;11.30;85.90;;;;;;5091060;28;20028;-73
2023/05/10 06:25:56;;;;;;;4.75;2.00;;;11.40;84.70;;;;;;5117733;28;20430;-73
2023/05/10 06:28:22;;;;;;;4.15;1.63;;;11.50;88.70;;;;;;5116800;28;20416;-73
2023/05/10 06:30:48;;;;;;;3.85;1.25;;;11.60;88.80;;;;;;5117591;28;20034;-73
2023/05/10 06:33:13;;;;;;;2.97;1.25;;;11.70;94.80;;;;;;5114356;28;20031;-74
2023/05/10 06:35:39;;;;;;;5.07;1.58;;;11.80;96.10;;;;;;5117597;28;20031;-75
2023/05/10 06:38:04;;;;;;;4.53;1.40;;;11.90;96.90;;;;;;5112439;28;20103;-75
2023/05/10 06:40:30;;;;;;;4.38;1.50;;;11.90;96.10;;;;;;5115865;28;20032;-74
2023/05/10 06:42:55;;;;;;;2.92;1.48;;;12.10;96.30;;;;;;5116401;28;20046;-74
2023/05/10 06:45:21;;;;;;;2.40;1.30;;;12.20;96.60;;;;;;5117435;28;20026;-74
2023/05/10 06:47:46;;;;;;;5.40;1.65;;;12.30;97.10;;;;;;5115304;28;20051;-74
2023/05/10 06:50:12;;;;;;;2.38;1.30;;;12.30;96.50;;;;;;5117349;28;20316;-74
2023/05/10 06:52:38;;;;;;;3.08;1.50;;;12.30;96.70;;;;;;5114305;28;20028;-74
2023/05/10 06:55:05;;;;;;;5.00;1.90;;;12.20;95.70;;;;;;5116145;28;20346;-74
2023/05/10 06:57:31;;;;;;;3.45;1.40;;;12.20;95.60;;;;;;5116232;28;20028;-74
2023/05/10 07:00:00;;;;;;;3.55;1.33;;;12.20;94.90;;;;;;5116846;28;20081;-74
2023/05/10 07:02:26;;;;;;;3.03;1.45;;;12.20;94.70;;;;;;5115282;28;20028;-74
2023/05/10 07:04:51;;;;;;;3.10;1.55;;;12.30;95.00;;;;;;5098934;28;20030;-73
2023/05/10 07:07:17;;;;;;;2.63;1.50;;;12.50;95.30;;;;;;5113102;28;20095;-74
2023/05/10 07:09:43;;;;;;;3.40;1.40;;;12.40;95.60;;;;;;5116207;28;20030;-73
2023/05/10 07:12:09;;;;;;;2.95;1.50;;;12.30;94.30;;;;;;5115891;28;20076;-73
2023/05/10 07:14:34;;;;;;;4.32;1.60;;;12.20;95.00;;;;;;5098820;28;20028;-73
2023/05/10 07:17:00;;;;;;;3.50;1.67;;;12.10;93.80;;;;;;5114822;28;20347;-73
2023/05/10 07:19:26;;;;;;;3.83;1.60;;;12.00;94.70;;;;;;5116740;28;20065;-73
2023/05/10 07:21:51;;;;;;;6.07;1.90;;;12.00;93.80;;;;;;5113217;28;20023;-74
2023/05/10 07:24:17;;;;;;;6.72;1.90;;;12.00;92.20;;;;;;5113906;28;20023;-73
2023/05/10 07:26:43;;;;;;;3.53;1.42;;;11.80;91.10;;;;;;5115820;28;20100;-73
2023/05/10 07:29:08;;;;;;;5.07;1.85;;;11.70;89.40;;;;;;5116634;28;20027;-74
2023/05/10 07:31:34;;;;;;;5.15;1.70;;;11.70;88.50;;;;;;5115579;28;20027;-74
2023/05/10 07:33:59;;;;;;;6.07;1.80;;;11.80;87.10;;;;;;5098631;28;20029;-74
2023/05/10 07:36:25;;;;;;;3.35;1.73;;;11.80;88.90;;;;;;5115518;28;20019;-75
2023/05/10 07:38:50;;;;;;;6.38;1.73;;;11.90;89.80;;;;;;5096473;28;20019;-73
2023/05/10 07:41:16;;;;;;;3.47;1.30;;;11.90;92.00;;;;;;5097478;28;20024;-73
2023/05/10 07:43:41;;;;;;;4.45;1.73;;;12.00;91.50;;;;;;5116212;28;20543;-73
2023/05/10 07:46:09;;;;;;;4.80;1.83;;;12.10;91.40;;;;;;5115356;28;20020;-73
2023/05/10 07:48:36;;;;;;;5.10;1.70;;;12.20;93.40;;;;;;5116354;28;20422;-73
2023/05/10 07:51:01;;;;;;;2.35;1.10;;;12.20;95.10;;;;;;5115591;28;20083;-73
2023/05/10 07:53:27;;;;;;;4.07;1.30;;;12.30;97.90;;;;;;5113909;28;20103;-74
2023/05/10 07:55:58;;;;;;;1.52;0.93;;;12.30;97.90;;;;;;5115415;28;20420;-73
2023/05/10 07:58:24;;;;;;;2.58;1.10;;;12.30;98.00;;;;;;5116287;28;20032;-73
2023/05/10 08:00:49;;;;;;;2.55;1.20;;;12.40;97.50;;;;;;5115285;28;20027;-73
2023/05/10 08:03:15;;;;;;;2.40;0.90;;;12.60;98.00;;;;;;5116433;28;20412;-73
2023/05/10 08:05:41;;;;;;;2.97;1.02;;;12.80;98.00;;;;;;5098074;28;21706;-73
2023/05/10 08:08:06;;;;;;;2.50;1.20;;;13.00;98.00;;;;;;5119141;28;20107;-74
2023/05/10 08:10:32;;;;;;;2.85;1.40;;;13.00;98.00;;;;;;5119569;28;20019;-74
2023/05/10 08:12:58;;;;;;;2.90;1.00;;;13.10;98.00;;;;;;5120316;28;20039;-73
2023/05/10 08:15:25;;;;;;;2.35;0.80;;;13.10;98.00;;;;;;5101260;28;20424;-74
2023/05/10 08:17:51;;;;;;;1.70;0.90;;;13.20;98.00;;;;;;5101293;28;20020;-73
2023/05/10 08:20:18;;;;;;;2.58;1.00;;;13.30;98.00;;;;;;5101511;28;20020;-74
2023/05/10 08:22:45;;;;;;;2.45;0.90;;;13.60;98.00;;;;;;5117116;28;20490;-74
2023/05/10 08:25:13;;;;;;;4.20;1.20;;;13.80;98.00;;;;;;5120051;28;20035;-74
2023/05/10 08:27:39;;;;;;;3.40;1.30;;;14.00;98.00;;;;;;5118944;28;20039;-73
2023/05/10 08:30:05;;;;;;;4.30;1.40;;;14.30;98.00;;;;;;5120008;28;20027;-74
2023/05/10 08:32:31;;;;;;;2.28;1.10;;;14.80;98.00;;;;;;5118980;28;20224;-78
2023/05/10 08:34:57;;;;;;;3.95;1.30;;;14.80;97.90;;;;;;5119982;28;20404;-74
2023/05/10 08:37:25;;;;;;;4.57;0.98;;;14.50;97.70;;;;;;5097991;28;20297;-74
2023/05/10 08:39:51;;;;;;;1.58;0.90;;;14.70;98.00;;;;;;5119845;28;20031;-74
2023/05/10 08:42:20;;;;;;;2.28;0.93;;;14.80;97.30;;;;;;5117538;28;20043;-74
2023/05/10 08:44:49;;;;;;;3.33;1.33;;;14.60;97.70;;;;;;5119820;28;20024;-74
2023/05/10 08:47:17;;;;;;;1.75;0.90;;;14.30;97.90;;;;;;5117735;28;20312;-74
2023/05/10 08:49:47;;;;;;;3.30;1.05;;;13.90;98.00;;;;;;5119418;28;20042;-73
2023/05/10 08:52:14;;;;;;;3.33;1.15;;;14.10;98.00;;;;;;5118678;28;20111;-74
2023/05/10 08:54:42;;;;;;;3.05;0.98;;;14.20;97.90;;;;;;5118432;28;20319;-74
2023/05/10 08:57:07;;;;;;;5.68;1.85;;;14.20;97.20;;;;;;5117494;28;20028;-74
2023/05/10 08:59:33;;;;;;;4.63;1.42;;;14.20;98.00;;;;;;5119464;28;20055;-74
2023/05/10 09:02:00;;;;;;;5.60;1.50;;;14.30;97.40;;;;;;5118233;28;20048;-74
2023/05/10 09:04:26;;;;;;;4.13;1.42;;;14.20;97.20;;;;;;5119271;28;20409;-73
2023/05/10 09:06:52;;;;;;;2.05;1.00;;;14.20;97.10;;;;;;5118419;28;20103;-74
2023/05/10 09:09:19;;;;;;;4.07;1.10;;;14.20;97.40;;;;;;5099987;28;20109;-74
2023/05/10 09:11:44;;;;;;;3.08;0.80;;;14.30;97.40;;;;;;5117384;28;20083;-73
2023/05/10 09:14:12;;;;;;;2.25;0.85;;;14.30;96.70;;;;;;5119074;28;20031;-74
2023/05/10 09:16:38;;;;;;;1.95;0.70;;;14.20;96.20;;;;;;5116590;28;20027;-74
2023/05/10 09:19:03;;;;;;;2.00;0.90;;;14.10;95.30;;;;;;5116785;28;20067;-73
2023/05/10 09:21:30;;;;;;;2.83;1.20;;;14.20;96.00;;;;;;5117988;28;20019;-73
2023/05/10 09:23:56;;;;;;;4.90;1.48;;;14.40;96.30;;;;;;5117853;28;20031;-74
2023/05/10 09:26:24;;;;;;;2.58;1.15;;;14.40;95.80;;;;;;5117961;28;20286;-74
2023/05/10 09:28:55;;;;;;;2.05;0.88;;;14.20;95.70;;;;;;5118832;28;20020;-74
2023/05/10 09:31:25;;;;;;;2.88;1.10;;;13.80;96.40;;;;;;5116946;28;20332;-75
2023/05/10 09:33:51;;;;;;;1.45;0.95;;;13.80;97.10;;;;;;5098645;28;20026;-74
2023/05/10 09:36:17;;;;;;;2.38;1.00;;;14.10;97.50;;;;;;5118802;28;20042;-74
2023/05/10 09:38:48;;;;;;;1.10;0.70;;;14.40;96.20;;;;;;5116517;28;20023;-74
2023/05/10 09:41:23;;;;;;;1.45;0.90;;;14.20;95.70;;;;;;5118679;28;20020;-73
2023/05/10 09:43:49;;;;;;;1.48;0.70;;;13.90;95.30;;;;;;5117448;28;20464;-74
2023/05/10 09:46:16;;;;;;;3.28;1.00;;;13.80;96.20;;;;;;5118573;28;20084;-73
2023/05/10 09:48:44;;;;;;;2.75;0.90;;;13.70;96.80;;;;;;5116842;28;20035;-73
2023/05/10 09:51:10;;;;;;;1.77;0.80;;;13.50;97.70;;;;;;5100501;28;20027;-73
2023/05/10 09:53:36;;;;;;;1.70;0.85;;;13.20;97.70;;;;;;5098176;28;20420;-73
2023/05/10 09:56:01;;;;;;;2.78;1.15;;;13.10;98.00;;;;;;5118447;28;20035;-73
2023/05/10 09:58:27;;;;;;;2.05;0.63;;;13.10;98.00;;;;;;5099376;28;20035;-73
2023/05/10 10:00:53;;;;;;;2.38;1.08;;;13.10;98.00;;;;;;5115695;28;20032;-73
2023/05/10 10:03:20;;;;;;;3.45;0.70;;;13.20;98.00;;;;;;5117321;28;20356;-73
2023/05/10 10:05:48;;;;;;;1.98;0.80;;;13.40;98.00;;;;;;5118105;28;20032;-73
2023/05/10 10:08:15;;;;;;;3.15;1.08;;;13.50;98.00;;;;;;5116028;28;20035;-74
2023/05/10 10:10:41;;;;;;;2.72;0.98;;;13.40;98.00;;;;;;5118156;28;20043;-73
2023/05/10 10:13:07;;;;;;;1.25;0.80;;;13.60;98.00;;;;;;5117005;28;20027;-74
2023/05/10 10:15:34;;;;;;;2.33;0.90;;;13.70;98.00;;;;;;5116740;28;20031;-73
2023/05/10 10:18:00;;;;;;;1.17;0.80;;;13.90;98.00;;;;;;5116762;28;20043;-73
2023/05/10 10:20:26;;;;;;;4.28;1.10;;;14.20;98.00;;;;;;5117927;28;20032;-73
2023/05/10 10:22:52;;;;;;;1.45;0.80;;;14.60;97.50;;;;;;5115872;28;20489;-74
2023/05/10 10:25:21;;;;;;;2.08;1.00;;;15.10;97.10;;;;;;5117769;28;20032;-74
2023/05/10 10:27:53;;;;;;;2.30;1.13;;;15.30;95.20;;;;;;5098529;28;20019;-74
2023/05/10 10:30:24;;;;;;;1.70;0.90;;;15.10;94.60;;;;;;5116672;28;20036;-73
2023/05/10 10:33:20;;;;;;;3.30;0.90;;;15.30;94.90;;;;;;5116557;28;20024;-73
2023/05/10 10:35:46;;;;;;;3.30;1.15;;;15.60;92.70;;;;;;5117633;28;20027;-74
2023/05/10 10:38:13;;;;;;;2.78;1.00;;;15.80;92.30;;;;;;5115177;28;20034;-74
2023/05/10 10:40:39;;;;;;;3.50;1.20;;;16.40;92.00;;;;;;5117292;28;20038;-73
2023/05/10 10:43:28;;;;;;;2.05;0.90;;;16.50;91.20;;;;;;5114097;28;20436;-73
2023/05/10 10:46:14;;;;;;;2.42;0.85;;;16.80;89.90;;;;;;5109645;28;20031;-73
2023/05/10 10:49:08;;;;;;;2.85;0.88;;;17.30;87.60;;;;;;5117054;28;20074;-73
2023/05/10 10:51:40;;;;;;;1.95;0.90;;;17.30;87.70;;;;;;5116477;28;20092;-74
2023/05/10 10:54:12;;;;;;;1.73;0.80;;;17.10;88.20;;;;;;5114801;28;20031;-73
2023/05/10 10:56:37;;;;;;;2.47;0.90;;;16.60;88.60;;;;;;5116327;28;20058;-73
2023/05/10 10:59:03;;;;;;;3.45;0.85;;;16.70;89.20;;;;;;5116060;28;20059;-73
2023/05/10 11:01:44;;;;;;;3.45;1.35;;;17.00;89.30;;;;;;5116397;28;20016;-73
2023/05/10 11:04:09;;;;;;;2.20;1.10;;;17.20;88.20;;;;;;5117043;28;20106;-74
2023/05/10 11:06:35;;;;;;;3.35;0.90;;;17.10;88.50;;;;;;5116198;28;20112;-73
2023/05/10 11:09:12;;;;;;;2.30;0.90;;;17.20;87.10;;;;;;5115943;28;20024;-73
2023/05/10 11:12:07;;;;;;;3.20;1.00;;;16.70;86.80;;;;;;5115961;28;20031;-73
2023/05/10 11:14:33;;;;;;;7.38;1.30;;;16.10;89.60;;;;;;5095005;28;20432;-74
2023/05/10 11:17:00;;;;;;;2.60;0.90;;;16.30;89.10;;;;;;5099671;28;20149;-73
2023/05/10 11:19:28;;;;;;;1.63;0.90;;;16.50;89.40;;;;;;5116786;28;20373;-73
2023/05/10 11:22:14;;;;;;;3.70;1.20;;;16.50;87.90;;;;;;5115684;28;20090;-73
2023/05/10 11:24:55;;;;;;;3.20;1.10;;;16.20;88.70;;;;;;5115502;28;20289;-73
2023/05/10 11:27:22;;;;;;;3.42;0.73;;;16.30;89.40;;;;;;5114987;28;20023;-73
2023/05/10 11:29:51;;;;;;;3.50;1.00;;;15.00;89.00;;;;;;5116645;28;20055;-73
2023/05/10 11:32:19;;;;;;;9.55;1.17;;;13.80;91.80;;;;;;5115617;28;20035;-73
2023/05/10 11:34:47;;;;;;;4.80;1.20;;;13.20;95.20;;;;;;5116589;28;20042;-73
2023/05/10 11:37:13;;;;;;;4.72;1.48;;;12.90;95.80;;;;;;5115598;28;20024;-73
2023/05/10 11:39:45;;;;;;;4.03;1.40;;;12.70;96.30;;;;;;5114499;28;20153;-72
2023/05/10 11:42:12;;;;;;;8.93;1.27;;;12.60;96.90;;;;;;5114410;28;20317;-73
2023/05/10 11:44:37;;;;;;;4.30;1.13;;;12.40;96.10;;;;;;5116514;28;20369;-72
2023/05/10 11:47:03;;;;;;;4.70;1.23;;;12.40;95.70;;;;;;5115799;28;20094;-72
2023/05/10 11:49:29;;;;;;;5.35;1.40;;;12.40;95.50;;;;;;5098316;28;20066;-73
2023/05/10 11:52:05;;;;;;;3.25;1.17;;;12.50;95.00;;;;;;5111048;28;20032;-73
2023/05/10 11:54:31;;;;;;;3.88;1.10;;;12.80;93.80;;;;;;5112248;28;20119;-73
2023/05/10 11:56:56;;;;;;;2.33;1.10;;;12.90;93.00;;;;;;5115678;28;20107;-73
2023/05/10 11:59:22;;;;;;;7.55;1.55;;;13.10;91.20;;;;;;5116220;28;20039;-75
2023/05/10 12:01:50;;;;;;;4.85;1.10;;;13.40;91.50;;;;;;5115548;28;20036;-73
2023/05/10 12:04:16;;;;;;;4.15;1.65;;;13.70;90.10;;;;;;5115947;28;20047;-74
2023/05/10 12:06:42;;;;;;;7.03;1.40;;;14.00;88.60;;;;;;5116456;28;20060;-73
2023/05/10 12:09:08;;;;;;;6.03;1.73;;;13.90;88.60;;;;;;5112335;28;20101;-73
2023/05/10 12:11:40;;;;;;;3.72;1.08;;;13.80;88.10;;;;;;5098297;28;20066;-73
2023/05/10 12:14:05;;;;;;;5.93;1.30;;;13.80;88.30;;;;;;5116117;28;20023;-73
2023/05/10 12:16:31;;;;;;;3.67;1.10;;;13.90;87.30;;;;;;5116108;28;20366;-73
2023/05/10 12:18:58;;;;;;;4.10;1.23;;;13.80;87.00;;;;;;5116208;28;20485;-73
2023/05/10 12:21:25;;;;;;;4.85;1.50;;;13.40;87.10;;;;;;5115979;28;20016;-73
2023/05/10 12:23:52;;;;;;;4.40;1.20;;;13.40;88.20;;;;;;5109509;28;20024;-73
2023/05/10 12:26:18;;;;;;;3.47;1.00;;;13.80;87.80;;;;;;5096313;28;20039;-74
2023/05/10 12:28:44;;;;;;;2.92;1.10;;;14.20;88.20;;;;;;5115728;28;20427;-75
2023/05/10 12:31:09;;;;;;;2.97;1.27;;;14.10;86.40;;;;;;5110163;28;20408;-73
2023/05/10 12:33:42;;;;;;;3.25;1.10;;;14.30;87.30;;;;;;5095700;28;20077;-73
2023/05/10 12:36:09;;;;;;;6.93;1.35;;;14.40;86.90;;;;;;5095606;28;20020;-73
2023/05/10 12:38:43;;;;;;;5.90;1.55;;;14.00;87.00;;;;;;5094350;28;20023;-74
2023/05/10 12:41:11;;;;;;;5.15;1.23;;;13.80;88.70;;;;;;5110525;28;20094;-74
2023/05/10 12:43:37;;;;;;;5.75;1.40;;;13.80;89.70;;;;;;5115542;28;20104;-73
2023/05/10 12:46:14;;;;;;;4.82;1.30;;;14.10;90.10;;;;;;5097937;28;20031;-73
2023/05/10 12:48:42;;;;;;;7.95;1.40;;;14.20;88.30;;;;;;5115785;28;20023;-73
2023/05/10 12:51:09;;;;;;;5.32;1.50;;;14.10;88.90;;;;;;5116773;28;20030;-73